createdAt,value
2022-11-13T00:01:20.556Z,27.33
2022-11-13T00:04:05.674Z,30.42
2022-11-13T00:06:54.794Z,29.77
2022-11-13T00:09:43.031Z,32.97
2022-11-13T00:12:29.162Z,34.50
2022-11-13T00:15:14.441Z,30.95
2022-11-13T00:18:03.386Z,30.73
2022-11-13T00:20:48.118Z,30.30
2022-11-13T00:23:34.819Z,28.45
2022-11-13T00:26:22.282Z,29.63
2022-11-13T00:29:07.157Z,32.47
2022-11-13T00:31:52.116Z,32.88
2022-11-13T00:34:52.289Z,30.55
2022-11-13T00:37:37.406Z,31.83
2022-11-13T00:40:22.209Z,30.63
2022-11-13T00:43:07.214Z,30.60
2022-11-13T00:45:52.483Z,31.50
2022-11-13T00:48:37.806Z,32.58
2022-11-13T00:51:23.033Z,32.40
2022-11-13T00:54:07.942Z,31.45
2022-11-13T00:56:52.815Z,31.15
2022-11-13T00:59:37.618Z,29.98
2022-11-13T01:02:22.542Z,32.85
2022-11-13T01:05:07.463Z,30.70
2022-11-13T01:07:52.840Z,32.42
2022-11-13T01:10:53.162Z,30.23
2022-11-13T01:13:40.257Z,30.90
2022-11-13T01:16:27.605Z,29.02
2022-11-13T01:19:12.568Z,29.75
2022-11-13T01:21:57.363Z,31.90
2022-11-13T01:24:42.466Z,29.73
2022-11-13T01:27:27.607Z,32.15
2022-11-13T01:30:12.677Z,30.75
2022-11-13T01:32:57.446Z,29.52
2022-11-13T01:35:42.442Z,28.90
2022-11-13T01:38:27.491Z,25.48
2022-11-13T01:41:28.007Z,28.25
2022-11-13T01:44:15.297Z,28.60
2022-11-13T01:47:00.446Z,27.27
2022-11-13T01:49:46.598Z,26.88
2022-11-13T01:52:38.788Z,27.58
2022-11-13T01:55:24.148Z,26.38
2022-11-13T01:58:11.536Z,23.92
2022-11-13T02:00:56.841Z,24.27
2022-11-13T02:03:41.856Z,25.23
2022-11-13T02:06:33.079Z,24.10
2022-11-13T02:12:10.241Z,22.27
2022-11-13T02:14:58.113Z,23.52
2022-11-13T02:17:47.498Z,26.48
2022-11-13T02:20:45.092Z,24.98
2022-11-13T02:24:01.236Z,25.80
2022-11-13T02:26:45.980Z,26.02
2022-11-13T02:29:31.116Z,24.58
2022-11-13T02:32:16.291Z,25.27
2022-11-13T02:35:01.417Z,24.08
2022-11-13T02:37:46.504Z,25.30
2022-11-13T02:40:33.122Z,24.02
2022-11-13T02:43:18.168Z,24.00
2022-11-13T02:46:03.209Z,21.73
2022-11-13T02:48:48.458Z,22.05
2022-11-13T02:51:33.554Z,21.83
2022-11-13T02:54:18.706Z,19.85
2022-11-13T02:57:03.587Z,20.48
2022-11-13T02:59:48.855Z,19.80
2022-11-13T03:02:33.922Z,20.75
2022-11-13T03:05:19.063Z,22.30
2022-11-13T03:08:05.692Z,20.30
2022-11-13T03:10:50.485Z,21.20
2022-11-13T03:13:35.934Z,21.02
2022-11-13T03:16:20.828Z,19.42
2022-11-13T03:19:05.712Z,20.48
2022-11-13T03:21:50.960Z,18.45
2022-11-13T03:24:36.084Z,18.70
2022-11-13T03:27:21.434Z,19.45
2022-11-13T03:30:07.002Z,19.83
2022-11-13T03:32:55.929Z,18.90
2022-11-13T03:35:46.660Z,19.90
2022-11-13T03:38:32.383Z,18.27
2022-11-13T03:41:17.558Z,18.15
2022-11-13T03:44:02.747Z,17.20
2022-11-13T03:46:47.568Z,17.38
2022-11-13T03:49:32.544Z,17.00
2022-11-13T03:52:17.309Z,16.52
2022-11-13T03:55:02.199Z,18.55
2022-11-13T03:57:47.865Z,16.67
2022-11-13T04:00:33.133Z,18.38
2022-11-13T04:03:18.089Z,16.92
2022-11-13T04:06:02.898Z,18.92
2022-11-13T04:08:47.843Z,17.80
2022-11-13T04:11:33.168Z,17.70
2022-11-13T04:14:18.184Z,16.45
2022-11-13T04:17:02.976Z,15.93
2022-11-13T04:19:47.807Z,16.58
2022-11-13T04:22:33.402Z,15.07
2022-11-13T04:25:18.522Z,16.63
2022-11-13T04:28:03.559Z,16.17
2022-11-13T04:30:48.366Z,15.80
2022-11-13T04:33:33.277Z,17.27
2022-11-13T04:36:18.186Z,16.50
2022-11-13T04:39:03.404Z,16.40
2022-11-13T04:42:07.344Z,16.75
2022-11-13T04:44:52.425Z,15.63
2022-11-13T04:47:37.318Z,17.30
2022-11-13T04:50:23.496Z,16.30
2022-11-13T04:53:08.511Z,17.05
2022-11-13T04:55:53.594Z,18.65
2022-11-13T04:58:38.804Z,16.67
2022-11-13T05:01:23.642Z,15.90
2022-11-13T05:04:12.245Z,15.27
2022-11-13T05:06:57.295Z,16.40
2022-11-13T05:09:42.209Z,16.52
2022-11-13T05:12:27.169Z,17.55
2022-11-13T05:15:12.136Z,16.90
2022-11-13T05:17:56.925Z,16.17
2022-11-13T05:20:41.756Z,16.52
2022-11-13T05:23:26.845Z,15.65
2022-11-13T05:26:13.527Z,16.58
2022-11-13T05:28:59.642Z,14.10
2022-11-13T05:31:45.013Z,15.38
2022-11-13T05:34:30.056Z,17.00
2022-11-13T05:37:15.056Z,16.40
2022-11-13T05:40:00.216Z,18.17
2022-11-13T05:42:45.190Z,17.38
2022-11-13T05:45:30.352Z,15.93
2022-11-13T05:48:15.550Z,16.27
2022-11-13T05:51:24.984Z,16.30
2022-11-13T05:54:11.128Z,16.55
2022-11-13T05:56:55.978Z,16.92
2022-11-13T05:59:41.120Z,16.02
2022-11-13T06:02:26.072Z,15.52
2022-11-13T06:05:11.002Z,14.27
2022-11-13T06:07:55.882Z,15.82
2022-11-13T06:10:40.701Z,15.27
2022-11-13T06:13:25.826Z,15.40
2022-11-13T06:16:16.948Z,13.82
2022-11-13T06:19:05.435Z,15.52
2022-11-13T06:21:50.759Z,14.88
2022-11-13T06:24:35.840Z,13.70
2022-11-13T06:27:20.811Z,15.00
2022-11-13T06:30:06.181Z,14.63
2022-11-13T06:32:54.543Z,14.60
2022-11-13T06:35:39.453Z,14.73
2022-11-13T06:38:24.271Z,14.82
2022-11-13T06:41:12.054Z,15.25
2022-11-13T06:44:02.665Z,16.17
2022-11-13T06:46:48.506Z,15.35
2022-11-13T06:49:33.386Z,15.45
2022-11-13T06:52:18.302Z,14.88
2022-11-13T06:55:03.578Z,17.27
2022-11-13T06:57:48.541Z,17.65
2022-11-13T07:00:36.978Z,17.35
2022-11-13T07:03:26.023Z,15.70
2022-11-13T07:06:16.536Z,16.65
2022-11-13T07:09:01.577Z,18.27
2022-11-13T07:11:46.595Z,16.73
2022-11-13T07:14:31.502Z,16.98
2022-11-13T07:17:16.522Z,19.42
2022-11-13T07:20:01.426Z,19.73
2022-11-13T07:22:46.342Z,18.60
2022-11-13T07:25:32.066Z,18.13
2022-11-13T07:28:16.881Z,19.67
2022-11-13T07:31:01.723Z,18.73
2022-11-13T07:33:49.158Z,21.05
2022-11-13T07:36:34.297Z,20.52
2022-11-13T07:39:19.206Z,19.52
2022-11-13T07:42:04.183Z,19.90
2022-11-13T07:44:54.655Z,21.90
2022-11-13T07:47:40.796Z,21.75
2022-11-13T07:50:28.350Z,23.73
2022-11-13T07:53:13.418Z,24.25
2022-11-13T07:56:04.994Z,23.42
2022-11-13T07:58:49.878Z,25.85
2022-11-13T08:01:34.909Z,23.33
2022-11-13T08:04:19.740Z,26.25
2022-11-13T08:07:05.385Z,26.85
2022-11-13T08:09:50.464Z,28.05
2022-11-13T08:12:35.818Z,29.08
2022-11-13T08:15:20.668Z,30.20
2022-11-13T08:18:05.928Z,29.75
2022-11-13T08:20:50.838Z,28.08
2022-11-13T08:23:35.593Z,27.88
2022-11-13T08:26:20.646Z,28.30
2022-11-13T08:29:05.292Z,26.45
2022-11-13T08:31:50.278Z,26.77
2022-11-13T08:34:36.935Z,25.50
2022-11-13T08:37:22.058Z,26.55
2022-11-13T08:40:07.349Z,24.35
2022-11-13T08:43:39.807Z,24.48
2022-11-13T08:46:24.874Z,23.25
2022-11-13T08:49:09.705Z,23.65
2022-11-13T08:51:54.707Z,21.40
2022-11-13T08:54:39.585Z,23.02
2022-11-13T08:57:24.498Z,24.77
2022-11-13T09:00:10.274Z,22.25
2022-11-13T09:02:57.198Z,22.90
2022-11-13T09:05:42.362Z,22.90
2022-11-13T09:08:29.840Z,22.45
2022-11-13T09:11:15.018Z,21.73
2022-11-13T09:14:00.190Z,22.90
2022-11-13T09:16:45.307Z,22.85
2022-11-13T09:19:30.174Z,21.60
2022-11-13T09:22:15.109Z,22.23
2022-11-13T09:25:00.096Z,20.05
2022-11-13T09:27:52.486Z,21.00
2022-11-13T09:30:39.804Z,19.88
2022-11-13T09:33:24.896Z,19.98
2022-11-13T09:36:14.455Z,21.02
2022-11-13T09:39:00.821Z,19.95
2022-11-13T09:41:54.394Z,19.15
2022-11-13T09:44:47.682Z,18.75
2022-11-13T09:47:41.290Z,19.63
2022-11-13T09:50:29.660Z,18.40
2022-11-13T09:53:15.742Z,19.42
2022-11-13T09:56:14.911Z,20.08
2022-11-13T09:59:22.487Z,19.52
2022-11-13T10:02:23.063Z,19.40
2022-11-13T10:05:22.929Z,18.63
2022-11-13T10:08:19.052Z,19.40
2022-11-13T10:11:37.409Z,18.83
2022-11-13T10:14:32.932Z,17.05
2022-11-13T10:17:30.774Z,18.05
2022-11-13T10:20:22.455Z,18.95
2022-11-13T10:23:30.060Z,19.08
2022-11-13T10:26:18.442Z,19.40
2022-11-13T10:29:12.558Z,18.48
2022-11-13T10:31:59.363Z,18.58
2022-11-13T10:34:48.846Z,17.42
2022-11-13T10:37:55.242Z,18.10
2022-11-13T10:40:40.796Z,19.58
2022-11-13T10:43:26.756Z,18.55
2022-11-13T10:46:24.573Z,18.50
2022-11-13T10:49:29.006Z,16.63
2022-11-13T10:52:27.760Z,16.98
2022-11-13T10:55:37.568Z,18.70
2022-11-13T10:58:22.855Z,18.88
2022-11-13T11:01:23.772Z,18.42
2022-11-13T11:07:21.804Z,19.77
2022-11-13T11:10:33.395Z,19.70
2022-11-13T11:13:23.482Z,17.48
2022-11-13T11:16:12.557Z,19.17
2022-11-13T11:19:02.537Z,18.48
2022-11-13T11:21:51.323Z,17.60
2022-11-13T11:24:42.166Z,16.05
2022-11-13T11:27:35.050Z,17.52
2022-11-13T11:30:22.971Z,16.80
2022-11-13T11:33:19.626Z,18.45
2022-11-13T11:36:08.932Z,18.25
2022-11-13T11:39:25.509Z,19.23
2022-11-13T11:42:34.495Z,17.83
2022-11-13T11:45:34.051Z,18.17
2022-11-13T11:48:21.899Z,18.55
2022-11-13T11:51:35.627Z,17.73
2022-11-13T11:54:40.118Z,17.92
2022-11-13T11:57:41.578Z,17.38
2022-11-13T12:00:31.058Z,17.60
2022-11-13T12:03:44.043Z,17.55
2022-11-13T12:07:00.876Z,17.42
2022-11-13T12:10:13.979Z,18.38
2022-11-13T12:13:13.746Z,17.00
2022-11-13T12:16:10.902Z,18.15
2022-11-13T12:19:04.403Z,17.25
2022-11-13T12:22:06.737Z,17.58
2022-11-13T12:25:27.764Z,17.70
2022-11-13T12:28:20.441Z,17.05
2022-11-13T12:31:41.469Z,16.42
2022-11-13T12:34:34.641Z,17.17
2022-11-13T12:37:35.415Z,17.23
2022-11-13T12:40:28.896Z,17.23
2022-11-13T12:43:51.176Z,15.70
2022-11-13T12:46:38.792Z,16.83
2022-11-13T12:49:23.824Z,20.60
2022-11-13T12:52:22.711Z,19.23
2022-11-13T12:55:25.780Z,21.17
2022-11-13T12:58:20.890Z,20.05
2022-11-13T13:01:17.398Z,19.60
2022-11-13T13:04:30.488Z,19.73
2022-11-13T13:07:48.518Z,19.30
2022-11-13T13:11:00.640Z,17.55
2022-11-13T13:14:05.972Z,20.25
2022-11-13T13:16:51.148Z,18.77
2022-11-13T13:19:35.966Z,18.45
2022-11-13T13:22:30.287Z,18.45
2022-11-13T13:25:31.611Z,17.60
2022-11-13T13:28:24.255Z,18.40
2022-11-13T13:31:12.053Z,18.65
2022-11-13T13:34:19.315Z,18.02
2022-11-13T13:37:21.433Z,16.67
2022-11-13T13:40:29.763Z,17.80
2022-11-13T13:43:29.956Z,18.10
2022-11-13T13:46:21.813Z,17.83
2022-11-13T13:49:13.638Z,17.15
2022-11-13T13:51:58.603Z,17.45
2022-11-13T13:54:45.362Z,16.35
2022-11-13T13:57:30.449Z,18.00
2022-11-13T14:00:17.948Z,17.75
2022-11-13T14:03:03.949Z,17.80
2022-11-13T14:05:48.902Z,17.58
2022-11-13T14:08:34.270Z,16.30
2022-11-13T14:11:22.697Z,17.33
2022-11-13T14:14:22.120Z,16.55
2022-11-13T14:17:09.993Z,16.15
2022-11-13T14:20:00.561Z,16.20
2022-11-13T14:22:56.516Z,15.83
2022-11-13T14:25:43.311Z,16.10
2022-11-13T14:28:31.184Z,16.50
2022-11-13T14:31:16.674Z,16.45
2022-11-13T14:34:08.141Z,16.20
2022-11-13T14:36:53.160Z,16.40
2022-11-13T14:39:37.966Z,17.20
2022-11-13T14:42:28.368Z,16.83
2022-11-13T14:45:16.580Z,17.35
2022-11-13T14:48:04.855Z,18.02
2022-11-13T14:50:56.457Z,17.13
2022-11-13T14:53:42.366Z,18.58
2022-11-13T14:56:33.348Z,19.23
2022-11-13T14:59:26.998Z,18.88
2022-11-13T15:02:12.704Z,18.08
2022-11-13T15:04:57.923Z,19.13
2022-11-13T15:07:45.660Z,20.25
2022-11-13T15:10:31.301Z,20.55
2022-11-13T15:13:17.889Z,20.42
2022-11-13T15:16:03.249Z,21.50
2022-11-13T15:19:04.463Z,21.30
2022-11-13T15:22:20.406Z,23.05
2022-11-13T15:24:54.509Z,21.42
2022-11-13T15:27:43.096Z,21.98
2022-11-13T15:30:28.161Z,20.33
2022-11-13T15:33:15.018Z,22.45
2022-11-13T15:36:00.157Z,25.15
2022-11-13T15:38:45.648Z,22.58
2022-11-13T15:41:32.953Z,23.27
2022-11-13T15:44:17.941Z,24.48
2022-11-13T15:47:02.787Z,26.55
2022-11-13T15:50:09.847Z,24.88
2022-11-13T15:52:54.663Z,21.75
2022-11-13T15:55:41.238Z,22.05
2022-11-13T15:58:29.309Z,20.45
2022-11-13T16:01:19.481Z,20.05
2022-11-13T16:04:06.026Z,20.67
2022-11-13T16:06:51.183Z,19.35
2022-11-13T16:09:36.060Z,20.02
2022-11-13T16:12:21.111Z,21.35
2022-11-13T16:15:06.914Z,20.67
2022-11-13T16:17:54.303Z,20.23
2022-11-13T16:20:39.169Z,21.52
2022-11-13T16:23:24.626Z,22.60
2022-11-13T16:26:14.890Z,21.10
2022-11-13T16:29:13.109Z,19.13
2022-11-13T16:31:59.030Z,20.05
2022-11-13T16:34:46.080Z,18.77
2022-11-13T16:37:31.321Z,21.48
2022-11-13T16:40:22.564Z,19.00
2022-11-13T16:43:07.882Z,19.48
2022-11-13T16:45:53.280Z,21.85
2022-11-13T16:48:38.549Z,19.80
2022-11-13T16:51:23.642Z,21.02
2022-11-13T16:54:08.838Z,20.77
2022-11-13T16:56:53.857Z,20.30
2022-11-13T16:59:39.321Z,21.42
2022-11-13T17:02:24.497Z,22.02
2022-11-13T17:05:14.393Z,19.58
2022-11-13T17:08:00.131Z,21.65
2022-11-13T17:10:45.392Z,22.45
2022-11-13T17:13:30.836Z,22.95
2022-11-13T17:16:17.101Z,23.17
2022-11-13T17:19:02.209Z,21.55
2022-11-13T17:21:47.128Z,21.70
2022-11-13T17:24:32.145Z,23.35
2022-11-13T17:27:17.919Z,22.17
2022-11-13T17:30:03.281Z,22.92
2022-11-13T17:32:50.559Z,23.63
2022-11-13T17:35:35.718Z,22.00
2022-11-13T17:38:20.774Z,24.98
2022-11-13T17:41:10.965Z,22.83
2022-11-13T17:44:00.903Z,23.67
2022-11-13T17:46:47.199Z,23.90
2022-11-13T17:49:32.601Z,25.13
2022-11-13T17:52:17.467Z,24.88
2022-11-13T17:55:05.994Z,24.67
2022-11-13T17:57:51.228Z,24.35
2022-11-13T18:00:36.155Z,24.60
2022-11-13T18:03:21.229Z,25.52
2022-11-13T18:06:08.787Z,27.15
2022-11-13T18:08:53.874Z,27.55
2022-11-13T18:11:38.772Z,27.83
2022-11-13T18:14:23.804Z,31.58
2022-11-13T18:17:08.770Z,30.10
2022-11-13T18:20:01.353Z,28.48
2022-11-13T18:22:46.776Z,28.92
2022-11-13T18:25:38.508Z,29.52
2022-11-13T18:28:24.895Z,29.30
2022-11-13T18:31:12.934Z,29.10
2022-11-13T18:33:59.521Z,28.88
2022-11-13T18:36:50.863Z,29.73
2022-11-13T18:39:35.938Z,31.65
2022-11-13T18:42:20.754Z,29.42
2022-11-13T18:45:06.548Z,30.23
2022-11-13T18:47:51.648Z,29.95
2022-11-13T18:50:36.762Z,31.60
2022-11-13T18:53:21.906Z,29.60
2022-11-13T18:56:10.246Z,32.33
2022-11-13T18:58:56.417Z,29.88
2022-11-13T19:01:45.155Z,32.45
2022-11-13T19:04:32.005Z,34.25
2022-11-13T19:07:17.368Z,32.15
2022-11-13T19:10:03.101Z,31.17
2022-11-13T19:12:48.562Z,29.98
2022-11-13T19:15:38.196Z,31.85
2022-11-13T19:18:23.543Z,30.02
2022-11-13T19:21:11.991Z,31.55
2022-11-13T19:23:58.630Z,30.65
2022-11-13T19:26:44.429Z,32.00
2022-11-13T19:29:29.367Z,31.40
2022-11-13T19:32:14.470Z,30.00
2022-11-13T19:34:59.751Z,33.00
2022-11-13T19:37:44.930Z,32.75
2022-11-13T19:40:30.030Z,31.42
2022-11-13T19:43:14.949Z,32.95
2022-11-13T19:46:08.285Z,31.00
2022-11-13T19:48:53.690Z,31.90
2022-11-13T19:51:38.566Z,30.40
2022-11-13T19:54:23.596Z,31.77
2022-11-13T19:57:11.325Z,31.33
2022-11-13T19:59:56.566Z,31.08
2022-11-13T20:02:41.415Z,33.00
2022-11-13T20:05:26.285Z,32.10
2022-11-13T20:08:12.747Z,32.65
2022-11-13T20:11:03.071Z,33.88
2022-11-13T20:13:48.081Z,33.53
2022-11-13T20:16:33.221Z,32.08
2022-11-13T20:19:18.409Z,33.67
2022-11-13T20:22:03.272Z,30.90
2022-11-13T20:24:48.536Z,31.10
2022-11-13T20:27:36.951Z,33.15
2022-11-13T20:30:22.170Z,32.47
2022-11-13T20:33:07.138Z,32.42
2022-11-13T20:35:55.188Z,32.63
2022-11-13T20:38:41.111Z,31.85
2022-11-13T20:41:26.227Z,32.40
2022-11-13T20:44:12.303Z,32.50
2022-11-13T20:46:57.398Z,33.75
2022-11-13T20:49:42.253Z,34.80
2022-11-13T20:52:27.167Z,33.45
2022-11-13T20:55:12.042Z,34.22
2022-11-13T20:57:57.173Z,31.92
2022-11-13T21:00:42.295Z,33.17
2022-11-13T21:03:27.442Z,35.05
2022-11-13T21:06:15.913Z,35.22
2022-11-13T21:09:01.728Z,33.88
2022-11-13T21:11:46.907Z,33.70
2022-11-13T21:14:31.985Z,35.78
2022-11-13T21:17:16.867Z,35.10
2022-11-13T21:20:02.485Z,36.28
2022-11-13T21:22:47.661Z,37.40
2022-11-13T21:25:32.518Z,39.63
2022-11-13T21:28:22.440Z,36.78
2022-11-13T21:31:17.798Z,37.28
2022-11-13T21:34:03.922Z,39.63
2022-11-13T21:36:49.248Z,38.67
2022-11-13T21:39:34.612Z,41.05
2022-11-13T21:43:26.285Z,40.30
2022-11-13T21:46:12.442Z,41.03
2022-11-13T21:48:59.851Z,39.45
2022-11-13T21:51:44.764Z,40.53
2022-11-13T21:54:29.595Z,41.97
2022-11-13T21:57:14.521Z,42.33
2022-11-13T21:59:59.463Z,41.78
2022-11-13T22:02:44.340Z,43.90
2022-11-13T22:05:29.354Z,43.67
2022-11-13T22:08:14.532Z,43.97
2022-11-13T22:10:59.824Z,43.42
2022-11-13T22:13:44.658Z,45.83
2022-11-13T22:16:32.310Z,42.95
2022-11-13T22:19:25.266Z,43.22
2022-11-13T22:22:12.371Z,42.30
2022-11-13T22:24:57.186Z,43.80
2022-11-13T22:27:42.106Z,45.58
2022-11-13T22:30:27.237Z,43.78
2022-11-13T22:33:12.254Z,44.05
2022-11-13T22:36:05.635Z,45.03
2022-11-13T22:38:51.286Z,41.80
2022-11-13T22:41:36.797Z,44.83
2022-11-13T22:44:22.100Z,46.25
2022-11-13T22:47:07.218Z,43.15
2022-11-13T22:49:52.172Z,47.53
2022-11-13T22:52:37.066Z,45.30
2022-11-13T22:55:22.123Z,45.30
2022-11-13T22:58:07.134Z,44.13
2022-11-13T23:00:51.945Z,45.38
2022-11-13T23:03:38.534Z,46.90
2022-11-13T23:06:26.763Z,49.78
2022-11-13T23:09:11.905Z,47.22
2022-11-13T23:11:56.783Z,47.15
2022-11-13T23:14:41.616Z,48.42
2022-11-13T23:17:26.634Z,46.33
2022-11-13T23:20:12.208Z,49.42
2022-11-13T23:22:57.278Z,47.47
2022-11-13T23:25:42.170Z,48.35
2022-11-13T23:28:28.461Z,50.63
2022-11-13T23:31:14.230Z,49.60
2022-11-13T23:33:59.241Z,49.67
2022-11-13T23:36:44.226Z,50.78
2022-11-13T23:39:29.150Z,48.50
2022-11-13T23:42:14.002Z,51.60
2022-11-13T23:44:58.907Z,49.72
2022-11-13T23:47:43.922Z,52.78
2022-11-13T23:50:29.200Z,52.75
2022-11-13T23:53:14.114Z,50.90
2022-11-13T23:55:59.178Z,52.67
2022-11-13T23:58:44.196Z,50.72
